Time;durP1;ratioP1;P1;durP2;ratioP2;P2;SDS_P1;SDS_P2;PMS_P1;PMS_P2;Temp;Humidity;BMP_temperature;BMP_pressure;BME280_temperature;BME280_humidity;BME280_pressure;Samples;Min_cycle;Max_cycle;Signal;HPM_P1;HPM_P2
2023/01/13 05:01:24;;;;;;;1.90;1.20;;;7.70;99.90;;;;;;5461865;23;20328;-67
2023/01/13 05:03:51;;;;;;;23.52;1.52;;;7.60;99.90;;;;;;4906400;29;20240;-68
2023/01/13 05:06:17;;;;;;;2.75;0.85;;;7.60;99.90;;;;;;4912917;29;20693;-68
2023/01/13 05:08:44;;;;;;;8.75;0.95;;;7.70;99.90;;;;;;4913048;29;20204;-68
2023/01/13 05:19:21;;;;;;;8.75;2.30;;;7.60;99.90;;;;;;4914140;29;20242;-67
2023/01/13 05:27:19;;;;;;;12.75;1.40;;;7.60;99.90;;;;;;4891342;29;20215;-67
2023/01/13 05:29:45;;;;;;;1.35;1.02;;;7.60;99.90;;;;;;4913841;29;20674;-67
2023/01/13 05:32:14;;;;;;;4.00;1.00;;;7.60;99.90;;;;;;4912122;29;20628;-67
2023/01/13 05:34:40;;;;;;;11.95;1.20;;;7.50;99.90;;;;;;4912788;29;20212;-67
2023/01/13 05:37:09;;;;;;;1.10;1.00;;;7.50;99.90;;;;;;4905123;29;20257;-67
2023/01/13 05:45:01;;;;;;;0.40;0.40;;;7.50;99.90;;;;;;4910767;29;20227;-67
2023/01/13 05:47:29;;;;;;;5.15;1.58;;;7.50;99.90;;;;;;4905983;29;20218;-67
2023/01/13 05:49:56;;;;;;;4.78;1.15;;;7.50;99.90;;;;;;4914253;29;20200;-66
2023/01/13 05:52:22;;;;;;;2.88;1.30;;;7.50;99.90;;;;;;4909747;29;20236;-68
2023/01/13 05:54:49;;;;;;;0.82;0.82;;;7.50;99.90;;;;;;4914685;29;20205;-67
2023/01/13 05:57:16;;;;;;;0.35;0.35;;;7.50;99.90;;;;;;4910733;29;20251;-67
2023/01/13 05:59:43;;;;;;;5.68;2.50;;;7.50;99.90;;;;;;4908634;29;20244;-67
2023/01/13 06:02:10;;;;;;;14.30;2.45;;;7.50;99.90;;;;;;4908883;29;20249;-67
2023/01/13 06:04:38;;;;;;;1.60;1.00;;;7.50;99.90;;;;;;4907993;29;20258;-66
2023/01/13 06:07:04;;;;;;;0.52;0.52;;;7.50;99.90;;;;;;4911025;29;20203;-66
2023/01/13 06:09:31;;;;;;;0.57;0.57;;;7.40;99.90;;;;;;4910404;29;20257;-67
2023/01/13 06:11:58;;;;;;;13.55;1.20;;;7.40;99.90;;;;;;4906336;29;20227;-67
2023/01/13 06:14:24;;;;;;;1.38;0.65;;;7.40;99.90;;;;;;4911490;29;20239;-67
2023/01/13 06:16:51;;;;;;;2.40;1.00;;;7.40;99.90;;;;;;4910150;29;20669;-67
2023/01/13 06:19:18;;;;;;;0.80;0.80;;;7.40;99.90;;;;;;4913481;29;20722;-67
2023/01/13 06:21:47;;;;;;;1.10;1.10;;;7.40;99.90;;;;;;4910089;29;20466;-67
2023/01/13 06:24:14;;;;;;;3.53;1.40;;;7.40;99.90;;;;;;4905512;29;20216;-68
2023/01/13 06:26:41;;;;;;;0.47;0.47;;;7.40;99.90;;;;;;4906710;29;20246;-67
2023/01/13 06:29:08;;;;;;;28.58;1.80;;;7.50;99.90;;;;;;4906963;29;20205;-67
2023/01/13 06:31:38;;;;;;;1.52;1.42;;;7.50;99.90;;;;;;4910338;29;20327;-67
2023/01/13 06:34:10;;;;;;;1.92;1.70;;;7.60;99.90;;;;;;4902958;29;20688;-67
2023/01/13 06:36:41;;;;;;;3.15;2.95;;;7.60;99.90;;;;;;4911775;29;20718;-67
2023/01/13 06:39:11;;;;;;;27.05;7.47;;;7.60;99.90;;;;;;4904421;29;20228;-67
2023/01/13 06:44:30;;;;;;;11.75;4.88;;;7.60;99.90;;;;;;4868332;29;20207;-67
2023/01/13 06:46:57;;;;;;;3.03;1.83;;;7.70;99.90;;;;;;4913176;29;20202;-67
2023/01/13 06:49:24;;;;;;;4.38;3.40;;;7.70;99.90;;;;;;4907688;29;20215;-67
2023/01/13 06:51:50;;;;;;;2.42;2.25;;;7.70;99.90;;;;;;4905636;29;20228;-67
2023/01/13 06:54:18;;;;;;;2.50;1.95;;;7.70;99.90;;;;;;4909218;29;20217;-67
2023/01/13 06:56:45;;;;;;;8.70;1.33;;;7.70;99.90;;;;;;4912916;29;20642;-67
2023/01/13 06:59:12;;;;;;;2.63;2.25;;;7.70;99.90;;;;;;4915885;29;20228;-67
2023/01/13 07:01:38;;;;;;;3.05;2.28;;;7.70;99.90;;;;;;4912760;29;20241;-68
2023/01/13 07:04:05;;;;;;;1.20;1.08;;;7.70;99.90;;;;;;4914789;29;20215;-65
2023/01/13 07:06:32;;;;;;;7.55;2.85;;;7.70;99.90;;;;;;4909854;29;20217;-65
2023/01/13 07:08:59;;;;;;;3.92;3.30;;;7.70;99.90;;;;;;4914505;29;20217;-66
2023/01/13 07:11:27;;;;;;;9.35;3.42;;;7.70;99.90;;;;;;4913174;29;20236;-68
2023/01/13 07:16:37;;;;;;;2.58;1.35;;;7.60;99.90;;;;;;4906566;29;20348;-66
2023/01/13 07:19:04;;;;;;;1.38;1.38;;;7.70;99.90;;;;;;4916380;29;20256;-66
2023/01/13 07:21:32;;;;;;;1.63;1.52;;;7.70;99.90;;;;;;4907144;29;20411;-66
2023/01/13 07:23:59;;;;;;;2.97;1.40;;;7.70;99.90;;;;;;4911586;29;20208;-66
2023/01/13 07:26:27;;;;;;;1.20;0.45;;;7.70;99.90;;;;;;4905314;29;20682;-65
2023/01/13 07:28:53;;;;;;;2.03;1.00;;;7.70;99.90;;;;;;4916300;29;20215;-65
2023/01/13 07:31:21;;;;;;;9.95;2.75;;;7.70;99.90;;;;;;4913677;29;20243;-65
2023/01/13 07:33:48;;;;;;;2.10;1.77;;;7.70;99.90;;;;;;4911715;29;20210;-65
2023/01/13 07:36:15;;;;;;;2.40;2.00;;;7.70;99.90;;;;;;4910067;29;20219;-65
2023/01/13 07:38:43;;;;;;;9.73;1.88;;;7.70;99.90;;;;;;4914720;29;20343;-64
2023/01/13 07:44:06;;;;;;;0.90;0.65;;;7.70;99.90;;;;;;4849437;29;20275;-65
2023/01/13 07:46:33;;;;;;;9.00;2.00;;;7.70;99.90;;;;;;4909409;29;20633;-66
2023/01/13 07:49:00;;;;;;;2.38;1.65;;;7.70;99.90;;;;;;4911296;29;20204;-67
2023/01/13 07:51:27;;;;;;;13.82;1.25;;;7.70;99.90;;;;;;4911226;29;20263;-66
2023/01/13 07:53:54;;;;;;;1.75;0.60;;;7.70;99.90;;;;;;4915317;29;20276;-66
2023/01/13 07:56:20;;;;;;;3.03;1.58;;;7.70;99.90;;;;;;4908301;29;20212;-66
2023/01/13 07:58:49;;;;;;;3.33;0.45;;;7.70;99.90;;;;;;4906092;29;20225;-66
2023/01/13 08:01:18;;;;;;;2.72;1.98;;;7.70;99.90;;;;;;4904440;29;20251;-65
2023/01/13 08:03:45;;;;;;;8.30;1.75;;;7.70;99.90;;;;;;4912003;29;20213;-65
2023/01/13 08:06:12;;;;;;;0.50;0.50;;;7.70;99.90;;;;;;4905382;29;20590;-65
2023/01/13 08:08:39;;;;;;;0.82;0.82;;;7.70;99.90;;;;;;4909494;29;20208;-65
2023/01/13 08:11:08;;;;;;;5.35;0.65;;;7.70;99.90;;;;;;4909070;29;20262;-65
2023/01/13 08:13:35;;;;;;;2.80;1.17;;;7.70;99.90;;;;;;4913266;29;20219;-65
2023/01/13 08:16:03;;;;;;;0.73;0.73;;;7.70;99.90;;;;;;4910530;29;20213;-65
2023/01/13 08:18:32;;;;;;;0.57;0.57;;;7.70;99.90;;;;;;4914359;29;20591;-65
2023/01/13 08:21:03;;;;;;;24.52;2.47;;;7.70;99.90;;;;;;4901632;29;20281;-65
2023/01/13 08:23:30;;;;;;;4.60;1.42;;;7.70;99.90;;;;;;4915265;29;20210;-65
2023/01/13 08:26:00;;;;;;;10.82;4.10;;;7.70;99.90;;;;;;4913203;29;21337;-65
2023/01/13 08:28:27;;;;;;;1.13;1.13;;;7.70;99.90;;;;;;4913106;29;20321;-65
2023/01/13 08:30:54;;;;;;;12.20;3.50;;;7.70;99.90;;;;;;4910283;29;20288;-65
2023/01/13 08:33:21;;;;;;;10.02;1.90;;;7.70;99.90;;;;;;4912129;29;20235;-65
2023/01/13 08:35:51;;;;;;;2.83;1.80;;;7.70;99.90;;;;;;4912465;29;20658;-65
2023/01/13 08:38:18;;;;;;;1.15;0.50;;;7.60;99.90;;;;;;4909059;29;20269;-65
2023/01/13 08:40:45;;;;;;;1.83;1.73;;;7.70;99.90;;;;;;4908249;29;20300;-65
2023/01/13 08:43:11;;;;;;;3.65;1.63;;;7.70;99.90;;;;;;4911739;29;20282;-64
2023/01/13 08:45:38;;;;;;;1.20;0.70;;;7.70;99.90;;;;;;4914565;29;20218;-65
2023/01/13 08:48:05;;;;;;;4.97;3.33;;;7.70;99.90;;;;;;4914332;29;20271;-65
2023/01/13 08:50:32;;;;;;;1.98;1.30;;;7.70;99.90;;;;;;4913473;29;20244;-65
2023/01/13 08:53:00;;;;;;;13.15;6.35;;;7.70;99.90;;;;;;4908175;29;20205;-64
2023/01/13 08:55:26;;;;;;;11.13;1.25;;;7.80;99.90;;;;;;4914898;29;20226;-65
2023/01/13 08:57:53;;;;;;;7.65;2.85;;;7.80;99.90;;;;;;4911911;29;20224;-65
2023/01/13 09:00:20;;;;;;;3.70;0.88;;;7.90;99.90;;;;;;4908673;29;20239;-65
2023/01/13 09:02:47;;;;;;;1.27;0.93;;;7.90;99.90;;;;;;4906688;29;20215;-65
2023/01/13 09:05:13;;;;;;;6.07;1.90;;;7.90;99.90;;;;;;4914673;29;20271;-65
2023/01/13 09:07:40;;;;;;;2.85;0.70;;;7.90;99.90;;;;;;4913298;29;20232;-63
2023/01/13 09:10:10;;;;;;;1.42;1.33;;;7.90;99.90;;;;;;4912628;29;20707;-64
2023/01/13 09:15:21;;;;;;;2.45;1.65;;;8.00;99.90;;;;;;4914559;29;20219;-64
2023/01/13 09:17:47;;;;;;;3.67;1.40;;;8.10;99.90;;;;;;4911973;29;20232;-64
2023/01/13 09:20:14;;;;;;;1.80;1.55;;;8.00;99.90;;;;;;4908748;29;20741;-64
2023/01/13 09:22:41;;;;;;;7.72;1.83;;;8.10;99.90;;;;;;4913150;29;20355;-64
2023/01/13 09:25:11;;;;;;;10.63;1.40;;;8.10;99.90;;;;;;4910570;29;20213;-65
2023/01/13 09:27:38;;;;;;;1.30;0.80;;;8.20;99.90;;;;;;4912761;29;20213;-63
2023/01/13 09:30:05;;;;;;;3.90;1.10;;;8.30;99.90;;;;;;4913126;29;20216;-65
2023/01/13 09:32:32;;;;;;;0.40;0.40;;;8.40;99.90;;;;;;4912657;29;21051;-64
2023/01/13 09:35:01;;;;;;;0.73;0.73;;;8.50;99.90;;;;;;4915522;29;20201;-66
2023/01/13 09:37:29;;;;;;;1.20;1.20;;;8.50;99.90;;;;;;4913497;29;20261;-65
2023/01/13 09:39:56;;;;;;;0.60;0.60;;;8.50;99.90;;;;;;4911835;29;20229;-66
2023/01/13 09:45:21;;;;;;;3.05;1.20;;;8.60;99.90;;;;;;4914390;29;20220;-65
2023/01/13 09:47:54;;;;;;;1.23;1.00;;;8.70;99.90;;;;;;4914382;29;20215;-65
2023/01/13 09:50:33;;;;;;;4.45;1.15;;;8.60;99.90;;;;;;4908561;29;20299;-65
2023/01/13 09:53:01;;;;;;;1.95;0.88;;;8.70;99.90;;;;;;4906296;29;20303;-65
2023/01/13 09:55:35;;;;;;;1.95;1.80;;;8.60;99.90;;;;;;4911879;29;20307;-65
2023/01/13 09:58:11;;;;;;;3.15;0.77;;;8.60;99.90;;;;;;4914216;29;20304;-65
2023/01/13 10:00:43;;;;;;;1.05;0.60;;;8.60;99.90;;;;;;4913582;29;20571;-65
2023/01/13 10:03:23;;;;;;;0.93;0.90;;;8.60;99.90;;;;;;4908639;29;20229;-65
2023/01/13 10:05:56;;;;;;;5.60;1.85;;;8.70;99.90;;;;;;4913843;29;20213;-65
2023/01/13 10:08:26;;;;;;;0.50;0.43;;;8.70;99.90;;;;;;4912899;29;20632;-65
2023/01/13 10:10:57;;;;;;;1.52;0.90;;;8.80;99.90;;;;;;4900845;29;20222;-65
2023/01/13 10:13:26;;;;;;;0.75;0.75;;;8.80;99.90;;;;;;4907365;29;20214;-65
2023/01/13 10:16:11;;;;;;;3.50;2.55;;;8.90;99.90;;;;;;4913965;29;20213;-65
2023/01/13 10:18:50;;;;;;;1.05;1.05;;;8.90;99.90;;;;;;4906927;29;20233;-65
2023/01/13 10:21:38;;;;;;;1.52;1.52;;;8.90;99.90;;;;;;4909656;29;20229;-66
2023/01/13 10:24:12;;;;;;;8.32;1.63;;;9.00;99.90;;;;;;4902233;29;20558;-65
2023/01/13 10:26:50;;;;;;;3.13;1.90;;;9.00;99.90;;;;;;4909343;29;20228;-65
2023/01/13 10:29:24;;;;;;;3.15;2.70;;;9.00;99.90;;;;;;4916988;29;20660;-65
2023/01/13 10:31:52;;;;;;;4.80;1.35;;;9.00;99.90;;;;;;4917509;29;20227;-66
2023/01/13 10:34:19;;;;;;;4.63;2.85;;;9.10;99.90;;;;;;4915603;29;20209;-66
2023/01/13 10:37:05;;;;;;;1.30;1.30;;;9.10;99.90;;;;;;4917800;29;20210;-67
2023/01/13 10:39:41;;;;;;;1.40;0.98;;;9.10;99.90;;;;;;4916573;29;20645;-66
2023/01/13 10:42:13;;;;;;;1.95;1.40;;;9.10;99.90;;;;;;4917099;29;20567;-66
2023/01/13 10:44:50;;;;;;;4.53;1.10;;;9.10;99.90;;;;;;4913178;29;20240;-67
2023/01/13 10:47:22;;;;;;;1.30;1.20;;;9.10;99.90;;;;;;4913408;29;20216;-66
2023/01/13 10:50:23;;;;;;;3.15;0.90;;;9.10;99.90;;;;;;4915439;29;20685;-66
2023/01/13 10:52:59;;;;;;;2.92;1.02;;;9.10;99.90;;;;;;4908805;29;20210;-65
2023/01/13 10:55:29;;;;;;;3.50;1.98;;;9.10;99.90;;;;;;4912770;29;20213;-65
2023/01/13 10:57:56;;;;;;;1.65;0.63;;;9.10;99.90;;;;;;4914290;29;20222;-67
2023/01/13 11:00:29;;;;;;;2.03;0.85;;;9.10;99.90;;;;;;4914738;29;20687;-65
2023/01/13 11:03:16;;;;;;;4.22;1.10;;;9.10;99.90;;;;;;4905412;29;20571;-65
2023/01/13 11:05:50;;;;;;;0.88;0.88;;;9.10;99.90;;;;;;4909355;29;20224;-65
2023/01/13 11:08:18;;;;;;;15.80;0.82;;;9.00;99.90;;;;;;4910580;29;20211;-66
2023/01/13 11:10:48;;;;;;;1.60;1.50;;;9.10;99.90;;;;;;4914261;29;20238;-65
2023/01/13 11:13:18;;;;;;;2.88;0.70;;;9.10;99.90;;;;;;4916857;29;20223;-65
2023/01/13 11:15:52;;;;;;;1.10;0.57;;;9.10;99.90;;;;;;4912408;29;20222;-65
2023/01/13 11:18:26;;;;;;;0.63;0.63;;;9.10;99.90;;;;;;4914310;29;20209;-64
2023/01/13 11:20:55;;;;;;;0.52;0.52;;;9.10;99.90;;;;;;4909216;29;20853;-65
2023/01/13 11:23:29;;;;;;;1.90;1.80;;;9.10;99.90;;;;;;4910425;29;20220;-65
2023/01/13 11:26:02;;;;;;;5.40;0.93;;;9.10;99.90;;;;;;4907659;29;20240;-65
2023/01/13 11:28:41;;;;;;;0.70;0.70;;;9.10;99.90;;;;;;4900559;29;20224;-66
2023/01/13 11:31:17;;;;;;;0.90;0.88;;;9.10;99.90;;;;;;4906133;29;20230;-66
2023/01/13 11:33:48;;;;;;;4.15;0.55;;;9.10;99.90;;;;;;4911975;29;20216;-65
2023/01/13 11:36:19;;;;;;;1.67;0.75;;;9.20;99.90;;;;;;4905413;29;20214;-66
2023/01/13 11:38:50;;;;;;;3.03;2.72;;;9.20;99.90;;;;;;4923032;29;20536;-66
2023/01/13 11:41:34;;;;;;;1.38;0.63;;;9.20;99.90;;;;;;4907672;29;20719;-65
2023/01/13 11:44:12;;;;;;;0.93;0.88;;;9.30;99.90;;;;;;4907037;29;20214;-65
2023/01/13 11:46:41;;;;;;;3.70;0.68;;;9.30;99.90;;;;;;4909690;29;20216;-65
2023/01/13 11:49:15;;;;;;;1.25;1.25;;;9.30;99.90;;;;;;4913984;29;20211;-65
2023/01/13 11:51:48;;;;;;;1.58;1.20;;;9.30;99.90;;;;;;4913879;29;20229;-67
2023/01/13 11:54:44;;;;;;;2.25;2.05;;;9.30;99.90;;;;;;4910876;29;20233;-66
2023/01/13 11:58:02;;;;;;;4.22;1.35;;;9.40;99.90;;;;;;4904872;29;20214;-67
2023/01/13 12:00:40;;;;;;;2.70;1.50;;;9.40;99.90;;;;;;4838247;29;20794;-65
2023/01/13 12:03:23;;;;;;;0.95;0.95;;;9.50;99.90;;;;;;4909149;29;20233;-65
2023/01/13 12:06:01;;;;;;;0.25;0.25;;;9.50;99.90;;;;;;4927187;23;20244;-68
2023/01/13 12:08:47;;;;;;;4.78;1.08;;;9.40;99.90;;;;;;4893469;29;20273;-65
2023/01/13 12:11:19;;;;;;;2.45;1.17;;;9.40;99.90;;;;;;4890178;29;20213;-66
2023/01/13 12:13:56;;;;;;;1.50;1.48;;;9.30;99.90;;;;;;4892448;29;20221;-65
2023/01/13 12:16:25;;;;;;;0.40;0.40;;;9.20;99.90;;;;;;4888865;29;20332;-66
2023/01/13 12:19:19;;;;;;;4.70;0.50;;;9.10;99.90;;;;;;4890811;29;20221;-66
2023/01/13 12:21:58;;;;;;;2.47;1.38;;;9.00;99.90;;;;;;4894171;29;20231;-67
2023/01/13 12:24:30;;;;;;;1.60;1.50;;;9.00;99.90;;;;;;4890368;29;20211;-66
2023/01/13 12:27:01;;;;;;;3.25;1.17;;;9.00;99.90;;;;;;4894415;29;20241;-67
2023/01/13 12:29:32;;;;;;;0.35;0.35;;;9.10;99.90;;;;;;4889661;29;21065;-66
2023/01/13 12:32:01;;;;;;;1.27;0.85;;;9.10;99.90;;;;;;4889006;29;20678;-66
2023/01/13 12:34:42;;;;;;;0.32;0.32;;;9.10;99.90;;;;;;4883151;29;20225;-67
2023/01/13 12:37:16;;;;;;;4.22;1.60;;;9.10;99.90;;;;;;4894373;29;20237;-66
2023/01/13 12:39:55;;;;;;;1.13;1.13;;;9.20;99.90;;;;;;4892199;29;20235;-66
2023/01/13 12:45:25;;;;;;;1.27;0.55;;;9.20;99.90;;;;;;4891032;29;20326;-67
2023/01/13 12:47:53;;;;;;;14.77;2.17;;;9.30;99.90;;;;;;4887762;29;20243;-67
2023/01/13 12:50:42;;;;;;;4.97;1.30;;;9.30;99.90;;;;;;4887840;29;20224;-67
2023/01/13 12:53:42;;;;;;;3.35;2.70;;;9.30;99.90;;;;;;4889384;29;20216;-67
2023/01/13 12:56:29;;;;;;;6.15;1.23;;;9.30;99.90;;;;;;4845425;29;20239;-67
2023/01/13 12:59:28;;;;;;;5.22;1.00;;;9.20;99.90;;;;;;4845825;29;20219;-67
2023/01/13 13:02:30;;;;;;;1.25;1.23;;;9.20;99.90;;;;;;4881582;29;20253;-67
2023/01/13 13:05:00;;;;;;;4.53;0.70;;;9.20;99.90;;;;;;4881239;29;20210;-67
2023/01/13 13:07:40;;;;;;;6.18;1.05;;;9.30;99.90;;;;;;4892564;29;20604;-67
2023/01/13 13:10:16;;;;;;;9.05;1.50;;;9.20;99.90;;;;;;4887093;29;20290;-67
2023/01/13 13:15:43;;;;;;;0.65;0.65;;;9.20;99.90;;;;;;4892762;29;20242;-66
2023/01/13 13:18:27;;;;;;;0.77;0.77;;;9.20;99.90;;;;;;4894663;29;20635;-67
2023/01/13 13:20:57;;;;;;;0.82;0.40;;;9.20;99.90;;;;;;4885388;29;20240;-67
2023/01/13 13:23:42;;;;;;;2.15;1.05;;;9.20;99.90;;;;;;4887863;29;20240;-67
2023/01/13 13:26:31;;;;;;;1.85;0.75;;;9.20;99.90;;;;;;4894031;29;20256;-67
2023/01/13 13:29:22;;;;;;;0.63;0.25;;;9.20;99.90;;;;;;4893822;29;20664;-66
2023/01/13 13:32:22;;;;;;;0.68;0.68;;;9.20;99.90;;;;;;4886713;29;20229;-67
2023/01/13 13:34:59;;;;;;;1.40;0.73;;;9.20;99.90;;;;;;4880595;29;20215;-67
2023/01/13 13:48:51;;;;;;;0.75;0.75;;;9.10;99.90;;;;;;4892233;29;20267;-67
2023/01/13 13:51:25;;;;;;;1.67;1.25;;;9.10;99.90;;;;;;4893142;29;20628;-67
2023/01/13 13:53:53;;;;;;;4.45;0.80;;;9.10;99.90;;;;;;4882618;29;20210;-67
2023/01/13 13:56:25;;;;;;;0.50;0.50;;;9.00;99.90;;;;;;4892655;29;20607;-67
2023/01/13 13:58:53;;;;;;;4.22;0.40;;;9.00;99.90;;;;;;4893424;29;20210;-67
2023/01/13 14:01:24;;;;;;;0.65;0.65;;;9.00;99.90;;;;;;4890381;29;20609;-67
2023/01/13 14:04:04;;;;;;;1.10;0.95;;;9.00;99.90;;;;;;4892356;29;20583;-67
2023/01/13 14:06:31;;;;;;;0.68;0.68;;;9.00;99.90;;;;;;4894669;29;20320;-67
2023/01/13 14:08:58;;;;;;;0.40;0.40;;;9.00;99.90;;;;;;4901267;29;20232;-67
2023/01/13 14:11:29;;;;;;;8.57;1.23;;;9.00;99.90;;;;;;4898061;29;20240;-67
2023/01/13 14:14:02;;;;;;;2.88;1.17;;;9.00;99.90;;;;;;4891536;29;20357;-67
2023/01/13 14:16:28;;;;;;;2.95;1.00;;;9.00;99.90;;;;;;4898448;29;20317;-67
2023/01/13 14:18:55;;;;;;;0.20;0.20;;;8.90;99.90;;;;;;4892072;29;20505;-67
2023/01/13 14:21:25;;;;;;;0.95;0.95;;;8.90;99.90;;;;;;4896956;29;20700;-67
2023/01/13 14:23:54;;;;;;;8.10;1.88;;;8.90;99.90;;;;;;4895694;29;20214;-67
2023/01/13 14:26:25;;;;;;;0.70;0.70;;;9.00;99.90;;;;;;4897752;29;20233;-67
2023/01/13 14:28:54;;;;;;;3.42;1.77;;;8.90;99.90;;;;;;4894298;29;20690;-67
2023/01/13 14:31:21;;;;;;;0.40;0.40;;;8.90;99.90;;;;;;4895486;29;20241;-67
2023/01/13 14:33:50;;;;;;;5.18;1.85;;;9.00;99.90;;;;;;4888161;29;20305;-66
2023/01/13 14:36:19;;;;;;;0.45;0.45;;;9.00;99.90;;;;;;4888536;29;20234;-66
2023/01/13 14:38:48;;;;;;;2.38;1.60;;;9.00;99.90;;;;;;4887365;29;20542;-66
2023/01/13 14:41:24;;;;;;;0.52;0.52;;;9.00;99.90;;;;;;4891077;29;20234;-66
2023/01/13 14:43:55;;;;;;;4.50;1.10;;;9.00;99.90;;;;;;4897199;29;20655;-66
2023/01/13 14:46:24;;;;;;;4.30;1.10;;;9.00;99.90;;;;;;4896910;29;20257;-66
2023/01/13 14:48:54;;;;;;;2.05;0.40;;;9.00;99.90;;;;;;4895522;29;20310;-65
2023/01/13 14:51:25;;;;;;;0.88;0.85;;;9.00;99.90;;;;;;4892538;29;20291;-66
2023/01/13 14:53:53;;;;;;;2.92;1.02;;;9.00;99.90;;;;;;4892557;29;20221;-66
2023/01/13 14:56:50;;;;;;;0.70;0.70;;;9.00;99.90;;;;;;4888911;29;20233;-66
2023/01/13 14:59:42;;;;;;;1.10;0.43;;;9.00;99.90;;;;;;4854203;29;20209;-66
2023/01/13 15:02:46;;;;;;;1.95;1.65;;;9.00;99.90;;;;;;4892002;29;20592;-66
2023/01/13 15:05:31;;;;;;;1.30;0.30;;;9.00;99.90;;;;;;4894623;29;20220;-66
2023/01/13 15:08:01;;;;;;;0.50;0.40;;;8.90;99.90;;;;;;4890861;29;20272;-66
2023/01/13 15:10:30;;;;;;;0.70;0.70;;;9.00;99.90;;;;;;4891225;29;20218;-66
2023/01/13 15:12:59;;;;;;;4.22;1.75;;;8.90;99.90;;;;;;4894375;29;20225;-66
2023/01/13 15:15:29;;;;;;;0.50;0.50;;;8.90;99.90;;;;;;4890153;29;20298;-67
2023/01/13 15:17:56;;;;;;;2.25;0.40;;;8.80;99.90;;;;;;4886031;29;20230;-67
2023/01/13 15:20:24;;;;;;;3.15;0.60;;;8.80;99.90;;;;;;4895533;29;20215;-67
2023/01/13 15:22:52;;;;;;;1.42;0.70;;;8.90;99.90;;;;;;4896725;29;20217;-67
2023/01/13 15:25:19;;;;;;;0.38;0.38;;;8.90;99.90;;;;;;4895047;29;20209;-67
2023/01/13 15:27:49;;;;;;;0.80;0.80;;;8.80;99.90;;;;;;4895779;29;20240;-66
2023/01/13 15:30:17;;;;;;;0.30;0.30;;;8.80;99.90;;;;;;4895870;29;20703;-67
2023/01/13 15:32:45;;;;;;;1.20;0.73;;;8.90;99.90;;;;;;4895576;29;20219;-67
2023/01/13 15:35:14;;;;;;;3.92;0.50;;;8.90;99.90;;;;;;4891512;29;20241;-67
2023/01/13 15:37:41;;;;;;;0.70;0.70;;;8.80;99.90;;;;;;4895569;29;20660;-67
2023/01/13 15:40:13;;;;;;;0.35;0.35;;;8.80;99.90;;;;;;4893310;29;20217;-66
2023/01/13 15:48:10;;;;;;;2.38;0.85;;;8.80;99.90;;;;;;4893060;29;20313;-67
2023/01/13 15:50:37;;;;;;;7.40;0.82;;;8.80;99.90;;;;;;4893089;29;20304;-67
2023/01/13 15:53:04;;;;;;;1.58;0.82;;;8.90;99.90;;;;;;4892317;29;20571;-67
2023/01/13 15:55:34;;;;;;;5.03;0.90;;;8.80;99.90;;;;;;4890513;29;20675;-67
2023/01/13 15:58:01;;;;;;;1.00;1.00;;;8.80;99.90;;;;;;4894653;29;20248;-66
2023/01/13 16:00:28;;;;;;;0.40;0.40;;;8.80;99.90;;;;;;4894604;29;20256;-67
2023/01/13 16:02:55;;;;;;;6.82;0.88;;;8.80;99.90;;;;;;4886750;29;20240;-67
2023/01/13 16:05:23;;;;;;;4.80;0.63;;;8.80;99.90;;;;;;4887752;29;20684;-67
2023/01/13 16:07:50;;;;;;;0.68;0.68;;;8.90;99.90;;;;;;4889304;29;20243;-66
2023/01/13 16:10:18;;;;;;;1.42;1.33;;;8.80;99.90;;;;;;4888856;29;20616;-66
2023/01/13 16:12:45;;;;;;;0.60;0.60;;;8.90;99.90;;;;;;4890138;29;20211;-67
2023/01/13 16:15:16;;;;;;;0.90;0.85;;;8.80;99.90;;;;;;4895797;29;20222;-67
2023/01/13 16:17:44;;;;;;;1.10;0.40;;;8.80;99.90;;;;;;4891220;29;20308;-67
2023/01/13 16:20:15;;;;;;;0.95;0.57;;;8.80;99.90;;;;;;4889017;29;20214;-66
2023/01/13 16:22:44;;;;;;;1.13;0.70;;;8.80;99.90;;;;;;4891038;29;20706;-67
2023/01/13 16:25:16;;;;;;;0.28;0.28;;;8.80;99.90;;;;;;4886274;29;20698;-66
2023/01/13 16:27:43;;;;;;;0.55;0.55;;;8.80;99.90;;;;;;4893858;29;20256;-67
2023/01/13 16:30:21;;;;;;;0.60;0.45;;;8.80;99.90;;;;;;4892049;29;20215;-68
2023/01/13 16:32:48;;;;;;;0.65;0.65;;;8.80;99.90;;;;;;4890034;29;20220;-67
2023/01/13 16:35:15;;;;;;;1.10;1.10;;;8.70;99.90;;;;;;4895694;29;20603;-67
2023/01/13 16:37:46;;;;;;;0.22;0.22;;;8.60;99.90;;;;;;4882154;29;20248;-66
2023/01/13 16:40:21;;;;;;;0.30;0.30;;;8.70;99.90;;;;;;4886002;29;20214;-67
2023/01/13 16:42:48;;;;;;;0.43;0.43;;;8.60;99.90;;;;;;4886765;29;20720;-66
2023/01/13 16:45:15;;;;;;;0.70;0.70;;;8.60;99.90;;;;;;4889011;29;20234;-66
2023/01/13 16:47:43;;;;;;;2.00;0.57;;;8.60;99.90;;;;;;4889054;29;20707;-67
2023/01/13 16:50:21;;;;;;;0.57;0.57;;;8.70;99.90;;;;;;4893629;29;20222;-66
2023/01/13 16:52:49;;;;;;;0.88;0.65;;;8.70;99.90;;;;;;4894196;29;20280;-67
2023/01/13 16:55:16;;;;;;;0.20;0.20;;;8.70;99.90;;;;;;4882150;29;20562;-66
2023/01/13 16:57:42;;;;;;;1.20;1.20;;;8.70;99.90;;;;;;4881785;29;20328;-66
2023/01/13 17:00:13;;;;;;;0.25;0.25;;;8.70;99.90;;;;;;4891195;29;20223;-67
2023/01/13 17:02:40;;;;;;;0.40;0.40;;;8.80;99.90;;;;;;4887534;29;20220;-67
2023/01/13 17:05:07;;;;;;;1.25;0.50;;;8.80;99.90;;;;;;4886769;29;20704;-66
2023/01/13 17:07:34;;;;;;;3.63;1.65;;;8.70;99.90;;;;;;4892171;29;20237;-66
2023/01/13 17:10:02;;;;;;;0.73;0.30;;;8.80;99.90;;;;;;4888432;29;20871;-67
2023/01/13 17:12:29;;;;;;;2.60;1.85;;;8.80;99.90;;;;;;4887440;29;20912;-66
2023/01/13 17:14:55;;;;;;;2.42;0.80;;;8.80;99.90;;;;;;4885529;29;20222;-67
2023/01/13 17:17:24;;;;;;;0.43;0.43;;;8.80;99.90;;;;;;4892368;29;20734;-67
2023/01/13 17:19:51;;;;;;;0.10;0.10;;;8.80;99.90;;;;;;4887000;29;20209;-67
2023/01/13 17:22:19;;;;;;;1.15;0.25;;;8.80;99.90;;;;;;4891359;29;20326;-67
2023/01/13 17:24:45;;;;;;;1.20;0.80;;;8.80;99.90;;;;;;4888375;29;20218;-67
2023/01/13 17:27:16;;;;;;;4.05;0.60;;;8.70;99.90;;;;;;4891530;29;20275;-67
2023/01/13 17:29:42;;;;;;;0.75;0.40;;;8.70;99.90;;;;;;4890091;29;20304;-67
2023/01/13 17:32:14;;;;;;;1.45;1.35;;;8.60;99.90;;;;;;4887505;29;20225;-67
2023/01/13 17:34:40;;;;;;;2.83;0.55;;;8.50;99.90;;;;;;4887938;29;20533;-67
2023/01/13 17:37:08;;;;;;;1.15;1.05;;;8.40;99.90;;;;;;4892264;29;20240;-67
2023/01/13 17:39:34;;;;;;;0.85;0.85;;;8.40;99.90;;;;;;4887760;29;20305;-67
2023/01/13 17:42:01;;;;;;;0.38;0.38;;;8.30;99.90;;;;;;4889417;29;20240;-67
2023/01/13 17:44:29;;;;;;;2.80;0.30;;;8.20;99.90;;;;;;4886043;29;20681;-68
2023/01/13 17:46:56;;;;;;;0.40;0.40;;;8.20;99.90;;;;;;4891568;29;20673;-67
2023/01/13 17:49:23;;;;;;;0.30;0.30;;;8.00;99.90;;;;;;4886948;29;20319;-67
2023/01/13 17:51:51;;;;;;;0.70;0.70;;;8.00;99.90;;;;;;4888562;29;20205;-67
2023/01/13 17:54:19;;;;;;;0.43;0.43;;;7.90;99.90;;;;;;4882747;29;20275;-66
2023/01/13 17:56:45;;;;;;;4.95;1.02;;;7.80;99.90;;;;;;4890423;29;20270;-66
2023/01/13 17:59:14;;;;;;;9.30;0.88;;;7.70;99.90;;;;;;4890120;29;20239;-66
2023/01/13 18:01:42;;;;;;;0.50;0.50;;;7.60;99.90;;;;;;4879226;29;20596;-66
2023/01/13 18:04:14;;;;;;;1.02;1.02;;;7.50;99.90;;;;;;4882572;29;20256;-66
2023/01/13 18:06:41;;;;;;;0.40;0.30;;;7.30;99.90;;;;;;4883610;29;20746;-66
2023/01/13 18:09:08;;;;;;;0.10;0.10;;;7.20;99.90;;;;;;4889132;29;20267;-66
2023/01/13 18:11:34;;;;;;;0.47;0.47;;;7.10;99.90;;;;;;4886107;29;20232;-65
2023/01/13 18:14:01;;;;;;;0.20;0.20;;;7.10;99.90;;;;;;4890710;29;20236;-66
2023/01/13 18:16:30;;;;;;;0.30;0.30;;;7.10;99.90;;;;;;4889463;29;20236;-66
2023/01/13 18:27:21;;;;;;;0.30;0.30;;;7.00;99.90;;;;;;4892016;29;20252;-66
2023/01/13 18:29:50;;;;;;;0.20;0.20;;;7.00;99.90;;;;;;4888422;29;20285;-66
2023/01/13 18:32:17;;;;;;;0.88;0.52;;;7.00;99.90;;;;;;4885946;29;20219;-66
2023/01/13 18:34:45;;;;;;;1.25;1.15;;;7.00;99.90;;;;;;4890365;29;20686;-67
2023/01/13 18:37:13;;;;;;;1.33;0.50;;;7.00;99.90;;;;;;4883280;29;20233;-67
2023/01/13 18:39:40;;;;;;;1.42;0.52;;;7.00;99.90;;;;;;4888888;29;20552;-67
2023/01/13 18:44:54;;;;;;;0.30;0.30;;;7.00;99.90;;;;;;4892620;29;20252;-66
2023/01/13 18:47:21;;;;;;;0.60;0.60;;;6.90;99.90;;;;;;4893535;29;20599;-66
2023/01/13 18:49:49;;;;;;;0.30;0.30;;;6.90;99.90;;;;;;4895602;29;20380;-66
2023/01/13 18:52:16;;;;;;;0.50;0.50;;;6.90;99.90;;;;;;4889987;29;20220;-67
2023/01/13 18:54:43;;;;;;;0.82;0.70;;;6.90;99.90;;;;;;4894282;29;20212;-66
2023/01/13 18:57:10;;;;;;;0.47;0.47;;;7.00;99.90;;;;;;4881723;29;20586;-66
2023/01/13 18:59:36;;;;;;;0.30;0.30;;;7.00;99.90;;;;;;4892015;29;20241;-66
2023/01/13 19:02:08;;;;;;;0.52;0.52;;;7.00;99.90;;;;;;4889842;29;20228;-66
2023/01/13 19:07:03;;;;;;;0.45;0.45;;;7.10;99.90;;;;;;4905491;29;20783;-68
2023/01/13 19:09:30;;;;;;;0.50;0.50;;;7.10;99.90;;;;;;4901892;29;20241;-68
2023/01/13 19:11:59;;;;;;;2.33;0.90;;;7.10;99.90;;;;;;4909416;29;20227;-68
2023/01/13 19:14:37;;;;;;;0.20;0.20;;;7.10;99.90;;;;;;4902259;29;20213;-68
2023/01/13 19:17:08;;;;;;;0.30;0.30;;;7.10;99.90;;;;;;4885983;29;20221;-67
2023/01/13 19:19:38;;;;;;;0.50;0.50;;;7.10;99.90;;;;;;4882135;29;20701;-67
2023/01/13 19:22:06;;;;;;;1.60;1.50;;;7.10;99.90;;;;;;4872072;29;20228;-67
2023/01/13 19:24:33;;;;;;;0.35;0.35;;;7.00;99.90;;;;;;4880726;29;20656;-68